sensor_id;sensor_type;location;lat;lon;timestamp;temperature;humidity
27266;DHT22;14766;51.380;13.762;2023-06-19T00:00:23;22.40;52.80
27266;DHT22;14766;51.380;13.762;2023-06-19T00:02:52;22.40;52.80
27266;DHT22;14766;51.380;13.762;2023-06-19T00:05:23;22.40;52.80
27266;DHT22;14766;51.380;13.762;2023-06-19T00:07:52;22.40;52.90
27266;DHT22;14766;51.380;13.762;2023-06-19T00:10:22;22.40;52.90
27266;DHT22;14766;51.380;13.762;2023-06-19T00:12:51;22.30;52.90
27266;DHT22;14766;51.380;13.762;2023-06-19T00:15:19;22.30;53.10
27266;DHT22;14766;51.380;13.762;2023-06-19T00:17:53;22.30;53.00
27266;DHT22;14766;51.380;13.762;2023-06-19T00:20:23;22.30;53.20
27266;DHT22;14766;51.380;13.762;2023-06-19T00:22:52;22.20;53.10
27266;DHT22;14766;51.380;13.762;2023-06-19T00:25:20;22.20;53.20
27266;DHT22;14766;51.380;13.762;2023-06-19T00:27:48;22.10;53.20
27266;DHT22;14766;51.380;13.762;2023-06-19T00:30:18;22.10;53.30
27266;DHT22;14766;51.380;13.762;2023-06-19T00:32:49;22.10;53.40
27266;DHT22;14766;51.380;13.762;2023-06-19T00:35:20;22.10;53.50
27266;DHT22;14766;51.380;13.762;2023-06-19T00:37:49;22.10;53.40
27266;DHT22;14766;51.380;13.762;2023-06-19T00:40:27;22.00;53.30
27266;DHT22;14766;51.380;13.762;2023-06-19T00:42:56;22.00;53.50
27266;DHT22;14766;51.380;13.762;2023-06-19T00:45:30;22.00;53.40
27266;DHT22;14766;51.380;13.762;2023-06-19T00:47:59;22.00;53.40
27266;DHT22;14766;51.380;13.762;2023-06-19T00:50:36;22.00;53.40
27266;DHT22;14766;51.380;13.762;2023-06-19T00:53:05;22.00;53.40
27266;DHT22;14766;51.380;13.762;2023-06-19T00:55:36;21.90;53.40
27266;DHT22;14766;51.380;13.762;2023-06-19T00:58:05;21.90;53.40
27266;DHT22;14766;51.380;13.762;2023-06-19T01:00:33;21.90;53.60
27266;DHT22;14766;51.380;13.762;2023-06-19T01:03:03;21.90;53.60
27266;DHT22;14766;51.380;13.762;2023-06-19T01:05:31;21.80;53.60
27266;DHT22;14766;51.380;13.762;2023-06-19T01:08:37;21.80;53.60
27266;DHT22;14766;51.380;13.762;2023-06-19T01:11:02;21.90;53.70
27266;DHT22;14766;51.380;13.762;2023-06-19T01:13:56;21.80;53.70
27266;DHT22;14766;51.380;13.762;2023-06-19T01:16:30;21.80;53.70
27266;DHT22;14766;51.380;13.762;2023-06-19T01:19:03;21.80;53.70
27266;DHT22;14766;51.380;13.762;2023-06-19T01:21:33;21.80;53.80
27266;DHT22;14766;51.380;13.762;2023-06-19T01:24:03;21.80;53.70
27266;DHT22;14766;51.380;13.762;2023-06-19T01:26:31;21.70;53.60
27266;DHT22;14766;51.380;13.762;2023-06-19T01:29:04;21.70;53.70
27266;DHT22;14766;51.380;13.762;2023-06-19T01:31:42;21.70;53.70
27266;DHT22;14766;51.380;13.762;2023-06-19T01:34:14;21.70;53.70
27266;DHT22;14766;51.380;13.762;2023-06-19T01:36:48;21.70;53.80
27266;DHT22;14766;51.380;13.762;2023-06-19T01:39:20;21.70;53.90
27266;DHT22;14766;51.380;13.762;2023-06-19T01:41:50;21.70;53.90
27266;DHT22;14766;51.380;13.762;2023-06-19T01:44:25;21.60;54.00
27266;DHT22;14766;51.380;13.762;2023-06-19T01:46:53;21.60;54.10
27266;DHT22;14766;51.380;13.762;2023-06-19T01:49:21;21.60;54.10
27266;DHT22;14766;51.380;13.762;2023-06-19T01:51:49;21.60;54.00
27266;DHT22;14766;51.380;13.762;2023-06-19T01:54:17;21.60;54.20
27266;DHT22;14766;51.380;13.762;2023-06-19T01:56:45;21.50;54.20
27266;DHT22;14766;51.380;13.762;2023-06-19T01:59:14;21.50;54.40
27266;DHT22;14766;51.380;13.762;2023-06-19T02:01:41;21.50;54.40
27266;DHT22;14766;51.380;13.762;2023-06-19T02:04:09;21.50;54.40
27266;DHT22;14766;51.380;13.762;2023-06-19T02:06:40;21.50;54.40
27266;DHT22;14766;51.380;13.762;2023-06-19T02:09:09;21.50;54.40
27266;DHT22;14766;51.380;13.762;2023-06-19T02:11:38;21.50;54.50
27266;DHT22;14766;51.380;13.762;2023-06-19T02:14:06;21.50;54.40
27266;DHT22;14766;51.380;13.762;2023-06-19T02:16:34;21.50;54.50
27266;DHT22;14766;51.380;13.762;2023-06-19T02:19:01;21.50;54.40
27266;DHT22;14766;51.380;13.762;2023-06-19T02:21:29;21.50;54.40
27266;DHT22;14766;51.380;13.762;2023-06-19T02:23:57;21.50;54.40
27266;DHT22;14766;51.380;13.762;2023-06-19T02:26:25;21.50;54.40
27266;DHT22;14766;51.380;13.762;2023-06-19T02:28:56;21.50;54.40
27266;DHT22;14766;51.380;13.762;2023-06-19T02:31:24;21.50;54.30
27266;DHT22;14766;51.380;13.762;2023-06-19T02:33:52;21.50;54.30
27266;DHT22;14766;51.380;13.762;2023-06-19T02:36:20;21.50;54.30
27266;DHT22;14766;51.380;13.762;2023-06-19T02:38:50;21.50;54.20
27266;DHT22;14766;51.380;13.762;2023-06-19T02:41:18;21.50;54.30
27266;DHT22;14766;51.380;13.762;2023-06-19T02:43:46;21.40;54.20
27266;DHT22;14766;51.380;13.762;2023-06-19T02:46:17;21.40;54.30
27266;DHT22;14766;51.380;13.762;2023-06-19T02:48:45;21.40;54.30
27266;DHT22;14766;51.380;13.762;2023-06-19T02:51:13;21.40;54.40
27266;DHT22;14766;51.380;13.762;2023-06-19T02:53:41;21.40;54.40
27266;DHT22;14766;51.380;13.762;2023-06-19T02:56:12;21.30;54.40
27266;DHT22;14766;51.380;13.762;2023-06-19T02:58:40;21.30;54.40
27266;DHT22;14766;51.380;13.762;2023-06-19T03:01:08;21.30;54.40
27266;DHT22;14766;51.380;13.762;2023-06-19T03:03:36;21.30;54.50
27266;DHT22;14766;51.380;13.762;2023-06-19T03:06:05;21.30;54.50
27266;DHT22;14766;51.380;13.762;2023-06-19T03:08:35;21.30;54.50
27266;DHT22;14766;51.380;13.762;2023-06-19T03:11:03;21.30;54.50
27266;DHT22;14766;51.380;13.762;2023-06-19T03:13:49;21.30;54.50
27266;DHT22;14766;51.380;13.762;2023-06-19T03:16:20;21.30;54.70
27266;DHT22;14766;51.380;13.762;2023-06-19T03:18:49;21.30;54.70
27266;DHT22;14766;51.380;13.762;2023-06-19T03:21:22;21.20;54.80
27266;DHT22;14766;51.380;13.762;2023-06-19T03:23:51;21.20;54.80
27266;DHT22;14766;51.380;13.762;2023-06-19T03:26:22;21.20;54.90
27266;DHT22;14766;51.380;13.762;2023-06-19T03:28:59;21.20;54.90
27266;DHT22;14766;51.380;13.762;2023-06-19T03:31:34;21.20;55.00
27266;DHT22;14766;51.380;13.762;2023-06-19T03:34:07;21.20;54.90
27266;DHT22;14766;51.380;13.762;2023-06-19T03:36:36;21.30;55.00
27266;DHT22;14766;51.380;13.762;2023-06-19T03:39:08;21.30;55.00
27266;DHT22;14766;51.380;13.762;2023-06-19T03:41:37;21.30;55.10
27266;DHT22;14766;51.380;13.762;2023-06-19T03:44:05;21.30;55.00
27266;DHT22;14766;51.380;13.762;2023-06-19T03:46:33;21.30;55.00
27266;DHT22;14766;51.380;13.762;2023-06-19T03:49:01;21.40;55.00
27266;DHT22;14766;51.380;13.762;2023-06-19T03:51:32;21.40;55.00
27266;DHT22;14766;51.380;13.762;2023-06-19T03:54:01;21.40;55.00
27266;DHT22;14766;51.380;13.762;2023-06-19T03:56:31;21.40;55.10
27266;DHT22;14766;51.380;13.762;2023-06-19T03:58:59;21.40;55.10
27266;DHT22;14766;51.380;13.762;2023-06-19T04:01:27;21.40;55.10
27266;DHT22;14766;51.380;13.762;2023-06-19T04:03:55;21.40;55.20
27266;DHT22;14766;51.380;13.762;2023-06-19T04:06:23;21.40;55.20
27266;DHT22;14766;51.380;13.762;2023-06-19T04:08:54;21.40;55.20
27266;DHT22;14766;51.380;13.762;2023-06-19T04:11:24;21.50;55.30
27266;DHT22;14766;51.380;13.762;2023-06-19T04:13:52;21.50;55.30
27266;DHT22;14766;51.380;13.762;2023-06-19T04:16:21;21.50;55.30
27266;DHT22;14766;51.380;13.762;2023-06-19T04:18:50;21.50;55.00
27266;DHT22;14766;51.380;13.762;2023-06-19T04:21:18;21.50;55.00
27266;DHT22;14766;51.380;13.762;2023-06-19T04:23:46;21.60;55.10
27266;DHT22;14766;51.380;13.762;2023-06-19T04:26:14;21.60;55.10
27266;DHT22;14766;51.380;13.762;2023-06-19T04:28:42;21.60;55.20
27266;DHT22;14766;51.380;13.762;2023-06-19T04:31:10;21.60;55.20
27266;DHT22;14766;51.380;13.762;2023-06-19T04:33:37;21.60;55.20
27266;DHT22;14766;51.380;13.762;2023-06-19T04:36:07;21.60;55.30
27266;DHT22;14766;51.380;13.762;2023-06-19T04:38:36;21.60;55.40
27266;DHT22;14766;51.380;13.762;2023-06-19T04:41:03;21.70;55.40
27266;DHT22;14766;51.380;13.762;2023-06-19T04:43:31;21.70;55.50
27266;DHT22;14766;51.380;13.762;2023-06-19T04:46:01;21.70;55.50
27266;DHT22;14766;51.380;13.762;2023-06-19T04:48:30;21.80;55.60
27266;DHT22;14766;51.380;13.762;2023-06-19T04:51:02;21.80;55.60
27266;DHT22;14766;51.380;13.762;2023-06-19T04:53:29;21.80;55.70
27266;DHT22;14766;51.380;13.762;2023-06-19T04:55:57;21.80;55.80
27266;DHT22;14766;51.380;13.762;2023-06-19T04:58:27;21.90;55.90
27266;DHT22;14766;51.380;13.762;2023-06-19T05:00:54;22.00;55.90
27266;DHT22;14766;51.380;13.762;2023-06-19T05:03:23;22.00;56.00
27266;DHT22;14766;51.380;13.762;2023-06-19T05:05:51;22.00;56.10
27266;DHT22;14766;51.380;13.762;2023-06-19T05:08:19;22.10;56.20
27266;DHT22;14766;51.380;13.762;2023-06-19T05:10:46;22.20;56.40
27266;DHT22;14766;51.380;13.762;2023-06-19T05:13:14;22.20;56.30
27266;DHT22;14766;51.380;13.762;2023-06-19T05:15:43;22.30;56.30
27266;DHT22;14766;51.380;13.762;2023-06-19T05:18:10;22.40;56.20
27266;DHT22;14766;51.380;13.762;2023-06-19T05:20:38;22.40;56.00
27266;DHT22;14766;51.380;13.762;2023-06-19T05:23:06;22.50;55.90
27266;DHT22;14766;51.380;13.762;2023-06-19T05:25:33;22.50;55.70
27266;DHT22;14766;51.380;13.762;2023-06-19T05:28:00;22.60;55.70
27266;DHT22;14766;51.380;13.762;2023-06-19T05:30:31;22.60;55.50
27266;DHT22;14766;51.380;13.762;2023-06-19T05:32:59;22.60;55.40
27266;DHT22;14766;51.380;13.762;2023-06-19T05:35:27;22.60;55.40
27266;DHT22;14766;51.380;13.762;2023-06-19T05:37:54;22.70;55.30
27266;DHT22;14766;51.380;13.762;2023-06-19T05:40:22;22.70;55.20
27266;DHT22;14766;51.380;13.762;2023-06-19T05:42:50;22.80;55.20
27266;DHT22;14766;51.380;13.762;2023-06-19T05:45:17;22.80;55.10
27266;DHT22;14766;51.380;13.762;2023-06-19T05:47:44;22.80;55.00
27266;DHT22;14766;51.380;13.762;2023-06-19T05:50:11;22.80;55.00
27266;DHT22;14766;51.380;13.762;2023-06-19T05:52:38;22.90;55.00
27266;DHT22;14766;51.380;13.762;2023-06-19T05:55:10;22.90;54.90
27266;DHT22;14766;51.380;13.762;2023-06-19T05:57:37;22.90;54.90
27266;DHT22;14766;51.380;13.762;2023-06-19T06:00:05;22.90;54.90
27266;DHT22;14766;51.380;13.762;2023-06-19T06:02:38;23.00;54.80
27266;DHT22;14766;51.380;13.762;2023-06-19T06:05:06;23.00;54.90
27266;DHT22;14766;51.380;13.762;2023-06-19T06:07:35;23.00;55.00
27266;DHT22;14766;51.380;13.762;2023-06-19T06:10:07;23.00;54.90
27266;DHT22;14766;51.380;13.762;2023-06-19T06:12:34;23.00;55.10
27266;DHT22;14766;51.380;13.762;2023-06-19T06:15:05;23.00;55.10
27266;DHT22;14766;51.380;13.762;2023-06-19T06:17:32;23.00;55.10
27266;DHT22;14766;51.380;13.762;2023-06-19T06:19:59;23.10;55.10
27266;DHT22;14766;51.380;13.762;2023-06-19T06:22:26;23.10;55.20
27266;DHT22;14766;51.380;13.762;2023-06-19T06:24:54;23.10;55.30
27266;DHT22;14766;51.380;13.762;2023-06-19T06:27:21;23.20;55.20
27266;DHT22;14766;51.380;13.762;2023-06-19T06:29:49;23.20;55.10
27266;DHT22;14766;51.380;13.762;2023-06-19T06:32:16;23.30;55.10
27266;DHT22;14766;51.380;13.762;2023-06-19T06:34:45;23.30;55.00
27266;DHT22;14766;51.380;13.762;2023-06-19T06:37:12;23.30;55.00
27266;DHT22;14766;51.380;13.762;2023-06-19T06:39:39;23.30;54.90
27266;DHT22;14766;51.380;13.762;2023-06-19T06:42:07;23.40;55.70
27266;DHT22;14766;51.380;13.762;2023-06-19T06:44:36;23.40;55.00
27266;DHT22;14766;51.380;13.762;2023-06-19T06:47:04;23.40;55.00
27266;DHT22;14766;51.380;13.762;2023-06-19T06:49:36;23.40;55.10
27266;DHT22;14766;51.380;13.762;2023-06-19T06:52:06;23.50;55.10
27266;DHT22;14766;51.380;13.762;2023-06-19T06:54:33;23.50;55.00
27266;DHT22;14766;51.380;13.762;2023-06-19T06:57:00;23.60;55.10
27266;DHT22;14766;51.380;13.762;2023-06-19T06:59:27;23.60;55.00
27266;DHT22;14766;51.380;13.762;2023-06-19T07:01:55;23.70;55.20
27266;DHT22;14766;51.380;13.762;2023-06-19T07:04:23;23.70;55.10
27266;DHT22;14766;51.380;13.762;2023-06-19T07:06:50;23.80;55.20
27266;DHT22;14766;51.380;13.762;2023-06-19T07:09:19;23.80;55.20
27266;DHT22;14766;51.380;13.762;2023-06-19T07:11:48;23.90;55.10
27266;DHT22;14766;51.380;13.762;2023-06-19T07:14:19;24.00;55.10
27266;DHT22;14766;51.380;13.762;2023-06-19T07:16:47;24.00;55.80
27266;DHT22;14766;51.380;13.762;2023-06-19T07:19:14;24.10;55.00
27266;DHT22;14766;51.380;13.762;2023-06-19T07:21:41;24.10;54.90
27266;DHT22;14766;51.380;13.762;2023-06-19T07:24:09;24.20;55.00
27266;DHT22;14766;51.380;13.762;2023-06-19T07:26:36;24.20;55.00
27266;DHT22;14766;51.380;13.762;2023-06-19T07:29:04;24.30;55.00
27266;DHT22;14766;51.380;13.762;2023-06-19T07:31:31;24.30;54.90
27266;DHT22;14766;51.380;13.762;2023-06-19T07:33:59;24.40;54.90
27266;DHT22;14766;51.380;13.762;2023-06-19T07:36:26;24.40;54.70
27266;DHT22;14766;51.380;13.762;2023-06-19T07:38:55;24.50;54.60
27266;DHT22;14766;51.380;13.762;2023-06-19T07:41:22;24.50;55.20
27266;DHT22;14766;51.380;13.762;2023-06-19T07:43:49;24.60;54.40
27266;DHT22;14766;51.380;13.762;2023-06-19T07:46:17;24.70;54.30
27266;DHT22;14766;51.380;13.762;2023-06-19T07:48:44;24.70;54.20
27266;DHT22;14766;51.380;13.762;2023-06-19T07:51:12;24.80;53.80
27266;DHT22;14766;51.380;13.762;2023-06-19T07:53:40;24.90;53.80
27266;DHT22;14766;51.380;13.762;2023-06-19T07:56:07;25.00;53.50
27266;DHT22;14766;51.380;13.762;2023-06-19T07:58:35;25.10;53.40
27266;DHT22;14766;51.380;13.762;2023-06-19T08:01:02;25.20;53.40
27266;DHT22;14766;51.380;13.762;2023-06-19T08:03:29;25.30;53.20
27266;DHT22;14766;51.380;13.762;2023-06-19T08:05:58;25.50;53.20
27266;DHT22;14766;51.380;13.762;2023-06-19T08:08:26;25.60;53.00
27266;DHT22;14766;51.380;13.762;2023-06-19T08:10:54;25.90;52.80
27266;DHT22;14766;51.380;13.762;2023-06-19T08:13:21;26.00;52.30
27266;DHT22;14766;51.380;13.762;2023-06-19T08:15:48;26.30;51.80
27266;DHT22;14766;51.380;13.762;2023-06-19T08:18:15;26.50;51.30
27266;DHT22;14766;51.380;13.762;2023-06-19T08:20:45;26.60;50.10
27266;DHT22;14766;51.380;13.762;2023-06-19T08:23:12;26.80;49.20
27266;DHT22;14766;51.380;13.762;2023-06-19T08:25:39;26.90;49.00
27266;DHT22;14766;51.380;13.762;2023-06-19T08:28:07;27.10;48.10
27266;DHT22;14766;51.380;13.762;2023-06-19T08:30:36;27.10;47.50
27266;DHT22;14766;51.380;13.762;2023-06-19T08:33:05;27.20;47.80
27266;DHT22;14766;51.380;13.762;2023-06-19T08:35:33;27.30;47.60
27266;DHT22;14766;51.380;13.762;2023-06-19T08:38:00;27.40;47.30
27266;DHT22;14766;51.380;13.762;2023-06-19T08:40:27;27.40;46.80
27266;DHT22;14766;51.380;13.762;2023-06-19T08:42:55;27.50;47.30
27266;DHT22;14766;51.380;13.762;2023-06-19T08:45:22;27.60;47.50
27266;DHT22;14766;51.380;13.762;2023-06-19T08:47:50;27.60;46.60
27266;DHT22;14766;51.380;13.762;2023-06-19T08:50:25;27.70;46.80
27266;DHT22;14766;51.380;13.762;2023-06-19T08:52:52;27.70;46.90
27266;DHT22;14766;51.380;13.762;2023-06-19T08:55:22;27.80;46.70
27266;DHT22;14766;51.380;13.762;2023-06-19T08:57:51;27.80;46.50
27266;DHT22;14766;51.380;13.762;2023-06-19T09:00:27;27.80;46.00
27266;DHT22;14766;51.380;13.762;2023-06-19T09:03:02;27.80;45.70
27266;DHT22;14766;51.380;13.762;2023-06-19T09:05:43;27.90;45.20
27266;DHT22;14766;51.380;13.762;2023-06-19T09:08:21;27.90;45.10
27266;DHT22;14766;51.380;13.762;2023-06-19T09:10:59;27.90;44.90
27266;DHT22;14766;51.380;13.762;2023-06-19T09:13:27;27.90;43.90
27266;DHT22;14766;51.380;13.762;2023-06-19T09:15:59;27.90;44.60
27266;DHT22;14766;51.380;13.762;2023-06-19T09:18:27;27.90;44.50
27266;DHT22;14766;51.380;13.762;2023-06-19T09:20:55;27.90;44.70
27266;DHT22;14766;51.380;13.762;2023-06-19T09:23:24;27.90;44.80
27266;DHT22;14766;51.380;13.762;2023-06-19T09:25:57;27.90;44.50
27266;DHT22;14766;51.380;13.762;2023-06-19T09:28:28;27.90;44.40
27266;DHT22;14766;51.380;13.762;2023-06-19T09:31:02;27.90;44.40
27266;DHT22;14766;51.380;13.762;2023-06-19T09:33:33;27.90;44.60
27266;DHT22;14766;51.380;13.762;2023-06-19T09:36:01;27.90;45.00
27266;DHT22;14766;51.380;13.762;2023-06-19T09:38:30;27.90;45.60
27266;DHT22;14766;51.380;13.762;2023-06-19T09:41:01;27.90;45.60
27266;DHT22;14766;51.380;13.762;2023-06-19T09:43:37;27.90;45.50
27266;DHT22;14766;51.380;13.762;2023-06-19T09:46:06;27.90;45.50
27266;DHT22;14766;51.380;13.762;2023-06-19T09:48:41;27.90;44.70
27266;DHT22;14766;51.380;13.762;2023-06-19T09:51:19;27.90;45.00
27266;DHT22;14766;51.380;13.762;2023-06-19T09:53:51;27.90;45.60
27266;DHT22;14766;51.380;13.762;2023-06-19T09:56:18;27.80;45.80
27266;DHT22;14766;51.380;13.762;2023-06-19T09:58:51;27.80;45.60
27266;DHT22;14766;51.380;13.762;2023-06-19T10:01:20;27.80;45.40
27266;DHT22;14766;51.380;13.762;2023-06-19T10:03:48;27.80;45.00
27266;DHT22;14766;51.380;13.762;2023-06-19T10:06:17;27.80;44.90
27266;DHT22;14766;51.380;13.762;2023-06-19T10:08:46;27.80;45.10
27266;DHT22;14766;51.380;13.762;2023-06-19T10:11:13;27.80;45.40
27266;DHT22;14766;51.380;13.762;2023-06-19T10:13:42;27.70;45.10
27266;DHT22;14766;51.380;13.762;2023-06-19T10:16:20;27.70;44.90
27266;DHT22;14766;51.380;13.762;2023-06-19T10:18:48;27.70;44.80
27266;DHT22;14766;51.380;13.762;2023-06-19T10:21:17;27.70;44.70
27266;DHT22;14766;51.380;13.762;2023-06-19T10:23:54;27.70;44.80
27266;DHT22;14766;51.380;13.762;2023-06-19T10:26:31;27.70;45.00
27266;DHT22;14766;51.380;13.762;2023-06-19T10:28:58;27.70;44.70
27266;DHT22;14766;51.380;13.762;2023-06-19T10:31:26;27.70;44.90
27266;DHT22;14766;51.380;13.762;2023-06-19T10:33:55;27.70;44.40
27266;DHT22;14766;51.380;13.762;2023-06-19T10:36:23;27.80;44.50
27266;DHT22;14766;51.380;13.762;2023-06-19T10:38:53;27.80;43.70
27266;DHT22;14766;51.380;13.762;2023-06-19T10:41:23;27.80;43.80
27266;DHT22;14766;51.380;13.762;2023-06-19T10:44:07;27.90;43.60
27266;DHT22;14766;51.380;13.762;2023-06-19T10:46:39;27.90;43.50
27266;DHT22;14766;51.380;13.762;2023-06-19T10:49:10;27.90;43.70
27266;DHT22;14766;51.380;13.762;2023-06-19T10:51:39;27.90;43.50
27266;DHT22;14766;51.380;13.762;2023-06-19T10:54:07;28.00;43.70
27266;DHT22;14766;51.380;13.762;2023-06-19T10:56:34;28.00;43.40
27266;DHT22;14766;51.380;13.762;2023-06-19T10:59:07;28.00;43.10
27266;DHT22;14766;51.380;13.762;2023-06-19T11:01:41;28.00;43.20
27266;DHT22;14766;51.380;13.762;2023-06-19T11:04:12;28.10;43.80
27266;DHT22;14766;51.380;13.762;2023-06-19T11:06:41;28.10;44.00
27266;DHT22;14766;51.380;13.762;2023-06-19T11:09:10;28.20;43.90
27266;DHT22;14766;51.380;13.762;2023-06-19T11:11:44;28.30;44.10
27266;DHT22;14766;51.380;13.762;2023-06-19T11:14:13;28.40;43.70
27266;DHT22;14766;51.380;13.762;2023-06-19T11:16:47;28.50;43.60
27266;DHT22;14766;51.380;13.762;2023-06-19T11:19:17;28.70;42.50
27266;DHT22;14766;51.380;13.762;2023-06-19T11:21:50;28.90;42.00
27266;DHT22;14766;51.380;13.762;2023-06-19T11:24:18;29.00;42.00
27266;DHT22;14766;51.380;13.762;2023-06-19T11:26:47;29.20;41.40
27266;DHT22;14766;51.380;13.762;2023-06-19T11:29:29;29.40;40.80
27266;DHT22;14766;51.380;13.762;2023-06-19T11:32:13;29.60;40.90
27266;DHT22;14766;51.380;13.762;2023-06-19T11:34:41;29.80;40.80
27266;DHT22;14766;51.380;13.762;2023-06-19T11:37:12;29.90;41.10
27266;DHT22;14766;51.380;13.762;2023-06-19T11:39:46;30.10;39.10
27266;DHT22;14766;51.380;13.762;2023-06-19T11:42:14;30.20;39.50
27266;DHT22;14766;51.380;13.762;2023-06-19T11:44:55;30.30;39.10
27266;DHT22;14766;51.380;13.762;2023-06-19T11:47:30;30.40;37.60
27266;DHT22;14766;51.380;13.762;2023-06-19T11:49:58;30.50;37.40
27266;DHT22;14766;51.380;13.762;2023-06-19T11:52:26;30.60;37.50
27266;DHT22;14766;51.380;13.762;2023-06-19T11:54:56;30.60;36.40
27266;DHT22;14766;51.380;13.762;2023-06-19T11:57:23;30.70;36.90
27266;DHT22;14766;51.380;13.762;2023-06-19T11:59:51;30.70;36.70
27266;DHT22;14766;51.380;13.762;2023-06-19T12:02:18;30.80;37.40
27266;DHT22;14766;51.380;13.762;2023-06-19T12:04:46;30.80;37.00
27266;DHT22;14766;51.380;13.762;2023-06-19T12:07:14;30.90;37.40
27266;DHT22;14766;51.380;13.762;2023-06-19T12:09:43;30.90;37.30
27266;DHT22;14766;51.380;13.762;2023-06-19T12:12:11;30.90;37.50
27266;DHT22;14766;51.380;13.762;2023-06-19T12:14:38;31.00;37.70
27266;DHT22;14766;51.380;13.762;2023-06-19T12:17:06;31.00;37.00
27266;DHT22;14766;51.380;13.762;2023-06-19T12:19:33;31.10;36.80
27266;DHT22;14766;51.380;13.762;2023-06-19T12:22:00;31.10;36.60
27266;DHT22;14766;51.380;13.762;2023-06-19T12:24:28;31.10;36.30
27266;DHT22;14766;51.380;13.762;2023-06-19T12:26:55;31.10;36.10
27266;DHT22;14766;51.380;13.762;2023-06-19T12:29:22;31.10;36.50
27266;DHT22;14766;51.380;13.762;2023-06-19T12:31:50;31.10;36.70
27266;DHT22;14766;51.380;13.762;2023-06-19T12:34:17;31.10;36.20
27266;DHT22;14766;51.380;13.762;2023-06-19T12:36:57;31.00;36.00
27266;DHT22;14766;51.380;13.762;2023-06-19T12:39:25;31.00;36.30
27266;DHT22;14766;51.380;13.762;2023-06-19T12:41:54;31.00;36.10
27266;DHT22;14766;51.380;13.762;2023-06-19T12:44:23;30.90;36.00
27266;DHT22;14766;51.380;13.762;2023-06-19T12:46:51;30.90;36.20
27266;DHT22;14766;51.380;13.762;2023-06-19T12:49:20;30.80;36.40
27266;DHT22;14766;51.380;13.762;2023-06-19T12:51:48;30.80;36.30
27266;DHT22;14766;51.380;13.762;2023-06-19T12:54:19;30.70;36.30
27266;DHT22;14766;51.380;13.762;2023-06-19T12:56:47;30.70;36.20
27266;DHT22;14766;51.380;13.762;2023-06-19T12:59:16;30.60;36.10
27266;DHT22;14766;51.380;13.762;2023-06-19T13:01:44;30.50;36.20
27266;DHT22;14766;51.380;13.762;2023-06-19T13:04:12;30.50;36.00
27266;DHT22;14766;51.380;13.762;2023-06-19T13:06:41;30.40;36.10
27266;DHT22;14766;51.380;13.762;2023-06-19T13:09:08;30.40;36.30
27266;DHT22;14766;51.380;13.762;2023-06-19T13:11:36;30.30;36.20
27266;DHT22;14766;51.380;13.762;2023-06-19T13:14:03;30.30;36.40
27266;DHT22;14766;51.380;13.762;2023-06-19T13:16:31;30.20;36.60
27266;DHT22;14766;51.380;13.762;2023-06-19T13:19:12;30.20;36.70
27266;DHT22;14766;51.380;13.762;2023-06-19T13:21:42;30.20;37.00
27266;DHT22;14766;51.380;13.762;2023-06-19T13:24:09;30.20;37.30
27266;DHT22;14766;51.380;13.762;2023-06-19T13:26:36;30.20;36.80
27266;DHT22;14766;51.380;13.762;2023-06-19T13:29:04;30.30;37.00
27266;DHT22;14766;51.380;13.762;2023-06-19T13:31:31;30.30;36.60
27266;DHT22;14766;51.380;13.762;2023-06-19T13:33:58;30.40;36.80
27266;DHT22;14766;51.380;13.762;2023-06-19T13:36:27;30.40;36.90
27266;DHT22;14766;51.380;13.762;2023-06-19T13:38:55;30.50;37.20
27266;DHT22;14766;51.380;13.762;2023-06-19T13:41:22;30.50;37.20
27266;DHT22;14766;51.380;13.762;2023-06-19T13:43:51;30.60;36.90
27266;DHT22;14766;51.380;13.762;2023-06-19T13:46:21;30.70;36.80
27266;DHT22;14766;51.380;13.762;2023-06-19T13:48:49;30.70;36.50
27266;DHT22;14766;51.380;13.762;2023-06-19T13:51:19;30.80;36.60
27266;DHT22;14766;51.380;13.762;2023-06-19T13:53:48;30.90;36.40
27266;DHT22;14766;51.380;13.762;2023-06-19T13:56:15;31.00;36.20
27266;DHT22;14766;51.380;13.762;2023-06-19T13:58:43;31.00;36.30
27266;DHT22;14766;51.380;13.762;2023-06-19T14:01:11;31.10;36.10
27266;DHT22;14766;51.380;13.762;2023-06-19T14:03:38;31.10;35.90
27266;DHT22;14766;51.380;13.762;2023-06-19T14:06:10;31.20;35.70
27266;DHT22;14766;51.380;13.762;2023-06-19T14:08:37;31.20;36.00
27266;DHT22;14766;51.380;13.762;2023-06-19T14:11:07;31.30;36.10
27266;DHT22;14766;51.380;13.762;2023-06-19T14:13:34;31.30;36.10
27266;DHT22;14766;51.380;13.762;2023-06-19T14:16:02;31.30;35.70
27266;DHT22;14766;51.380;13.762;2023-06-19T14:18:29;31.30;35.70
27266;DHT22;14766;51.380;13.762;2023-06-19T14:20:56;31.30;33.80
27266;DHT22;14766;51.380;13.762;2023-06-19T14:23:24;31.30;33.70
27266;DHT22;14766;51.380;13.762;2023-06-19T14:25:52;31.40;33.80
27266;DHT22;14766;51.380;13.762;2023-06-19T14:28:21;31.30;34.00
27266;DHT22;14766;51.380;13.762;2023-06-19T14:30:48;31.40;33.30
27266;DHT22;14766;51.380;13.762;2023-06-19T14:33:16;31.30;33.60
27266;DHT22;14766;51.380;13.762;2023-06-19T14:35:45;31.30;33.10
27266;DHT22;14766;51.380;13.762;2023-06-19T14:38:15;31.30;33.40
27266;DHT22;14766;51.380;13.762;2023-06-19T14:40:44;31.30;33.50
27266;DHT22;14766;51.380;13.762;2023-06-19T14:43:11;31.20;33.90
27266;DHT22;14766;51.380;13.762;2023-06-19T14:45:38;31.20;34.20
27266;DHT22;14766;51.380;13.762;2023-06-19T14:48:07;31.20;33.60
27266;DHT22;14766;51.380;13.762;2023-06-19T14:50:35;31.20;34.00
27266;DHT22;14766;51.380;13.762;2023-06-19T14:53:03;31.20;34.10
27266;DHT22;14766;51.380;13.762;2023-06-19T14:55:30;31.20;34.40
27266;DHT22;14766;51.380;13.762;2023-06-19T14:57:57;31.20;34.20
27266;DHT22;14766;51.380;13.762;2023-06-19T15:00:25;31.20;34.80
27266;DHT22;14766;51.380;13.762;2023-06-19T15:02:53;31.10;34.80
27266;DHT22;14766;51.380;13.762;2023-06-19T15:05:22;31.10;34.60
27266;DHT22;14766;51.380;13.762;2023-06-19T15:07:49;31.10;34.70
27266;DHT22;14766;51.380;13.762;2023-06-19T15:10:16;31.10;34.90
27266;DHT22;14766;51.380;13.762;2023-06-19T15:12:45;31.00;35.00
27266;DHT22;14766;51.380;13.762;2023-06-19T15:15:13;31.00;35.10
27266;DHT22;14766;51.380;13.762;2023-06-19T15:17:41;31.00;35.40
27266;DHT22;14766;51.380;13.762;2023-06-19T15:20:08;31.00;35.70
27266;DHT22;14766;51.380;13.762;2023-06-19T15:22:36;31.00;35.80
27266;DHT22;14766;51.380;13.762;2023-06-19T15:25:06;31.00;36.70
27266;DHT22;14766;51.380;13.762;2023-06-19T15:27:34;30.90;36.10